sensor_id;sensor_type;location;lat;lon;timestamp;pressure;altitude;pressure_sealevel;temperature;humidity
16544;BME280;8384;47.996;7.786;2023-03-08T00:01:22;97632.13;;;2.83;64.99
16544;BME280;8384;47.996;7.786;2023-03-08T00:03:53;97644.78;;;2.94;64.65
16544;BME280;8384;47.996;7.786;2023-03-08T00:06:20;97622.03;;;2.90;64.10
16544;BME280;8384;47.996;7.786;2023-03-08T00:08:45;97588.03;;;2.77;63.87
16544;BME280;8384;47.996;7.786;2023-03-08T00:11:12;97602.97;;;2.97;63.59
16544;BME280;8384;47.996;7.786;2023-03-08T00:13:38;97608.19;;;2.87;64.14
16544;BME280;8384;47.996;7.786;2023-03-08T00:16:06;97593.97;;;2.91;63.84
16544;BME280;8384;47.996;7.786;2023-03-08T00:18:33;97588.28;;;2.76;64.48
16544;BME280;8384;47.996;7.786;2023-03-08T00:21:03;97578.41;;;2.81;64.32
16544;BME280;8384;47.996;7.786;2023-03-08T00:23:29;97579.16;;;2.94;63.57
16544;BME280;8384;47.996;7.786;2023-03-08T00:25:55;97572.28;;;2.86;63.39
16544;BME280;8384;47.996;7.786;2023-03-08T00:28:20;97603.41;;;3.06;63.53
16544;BME280;8384;47.996;7.786;2023-03-08T00:31:01;97590.00;;;2.82;63.52
16544;BME280;8384;47.996;7.786;2023-03-08T00:33:27;97604.88;;;2.96;63.59
16544;BME280;8384;47.996;7.786;2023-03-08T00:36:01;97581.03;;;2.64;63.79
16544;BME280;8384;47.996;7.786;2023-03-08T00:38:27;97611.94;;;2.85;63.92
16544;BME280;8384;47.996;7.786;2023-03-08T00:40:54;97600.84;;;2.99;63.25
16544;BME280;8384;47.996;7.786;2023-03-08T00:43:20;97597.47;;;3.04;63.34
16544;BME280;8384;47.996;7.786;2023-03-08T00:45:45;97563.94;;;2.88;62.67
16544;BME280;8384;47.996;7.786;2023-03-08T00:48:10;97544.63;;;2.67;62.77
16544;BME280;8384;47.996;7.786;2023-03-08T00:50:36;97570.63;;;2.85;62.53
16544;BME280;8384;47.996;7.786;2023-03-08T00:53:01;97570.00;;;2.95;62.63
16544;BME280;8384;47.996;7.786;2023-03-08T00:55:27;97569.09;;;2.89;61.80
16544;BME280;8384;47.996;7.786;2023-03-08T00:57:52;97545.50;;;2.55;62.80
16544;BME280;8384;47.996;7.786;2023-03-08T01:00:17;97545.22;;;2.69;62.01
16544;BME280;8384;47.996;7.786;2023-03-08T01:02:43;97533.72;;;2.74;61.59
16544;BME280;8384;47.996;7.786;2023-03-08T01:05:09;97539.88;;;2.86;61.25
16544;BME280;8384;47.996;7.786;2023-03-08T01:07:34;97557.81;;;2.92;60.71
16544;BME280;8384;47.996;7.786;2023-03-08T01:09:59;97528.91;;;2.76;61.18
16544;BME280;8384;47.996;7.786;2023-03-08T01:12:24;97545.97;;;2.93;60.73
16544;BME280;8384;47.996;7.786;2023-03-08T01:14:53;97541.31;;;2.89;60.24
16544;BME280;8384;47.996;7.786;2023-03-08T01:17:18;97525.00;;;2.83;60.28
16544;BME280;8384;47.996;7.786;2023-03-08T01:19:44;97523.22;;;2.89;59.47
16544;BME280;8384;47.996;7.786;2023-03-08T01:22:09;97512.41;;;2.89;60.15
16544;BME280;8384;47.996;7.786;2023-03-08T01:24:34;97483.63;;;2.78;60.17
16544;BME280;8384;47.996;7.786;2023-03-08T01:27:00;97445.94;;;2.54;59.95
16544;BME280;8384;47.996;7.786;2023-03-08T01:29:26;97490.88;;;2.77;59.78
16544;BME280;8384;47.996;7.786;2023-03-08T01:31:52;97499.34;;;2.69;59.75
16544;BME280;8384;47.996;7.786;2023-03-08T01:34:17;97497.69;;;2.51;60.28
16544;BME280;8384;47.996;7.786;2023-03-08T01:36:43;97492.25;;;2.63;59.74
16544;BME280;8384;47.996;7.786;2023-03-08T01:39:08;97494.25;;;2.55;59.16
16544;BME280;8384;47.996;7.786;2023-03-08T01:41:33;97506.09;;;2.54;59.35
16544;BME280;8384;47.996;7.786;2023-03-08T01:43:59;97505.84;;;2.56;59.55
16544;BME280;8384;47.996;7.786;2023-03-08T01:46:35;97526.97;;;2.59;59.47
16544;BME280;8384;47.996;7.786;2023-03-08T01:49:13;97493.19;;;2.57;58.48
16544;BME280;8384;47.996;7.786;2023-03-08T01:51:46;97499.41;;;2.57;58.57
16544;BME280;8384;47.996;7.786;2023-03-08T01:54:17;97499.75;;;2.61;59.13
16544;BME280;8384;47.996;7.786;2023-03-08T01:56:46;97496.28;;;2.77;58.60
16544;BME280;8384;47.996;7.786;2023-03-08T01:59:13;97491.78;;;2.83;58.50
16544;BME280;8384;47.996;7.786;2023-03-08T02:01:39;97487.69;;;2.80;58.73
16544;BME280;8384;47.996;7.786;2023-03-08T02:04:05;97463.91;;;2.77;59.33
16544;BME280;8384;47.996;7.786;2023-03-08T02:06:30;97461.53;;;2.81;60.00
16544;BME280;8384;47.996;7.786;2023-03-08T02:08:56;97444.91;;;2.72;59.88
16544;BME280;8384;47.996;7.786;2023-03-08T02:11:23;97443.78;;;2.85;60.09
16544;BME280;8384;47.996;7.786;2023-03-08T02:13:49;97443.22;;;2.83;60.36
16544;BME280;8384;47.996;7.786;2023-03-08T02:16:16;97406.63;;;2.58;60.36
16544;BME280;8384;47.996;7.786;2023-03-08T02:18:56;97441.41;;;2.72;61.34
16544;BME280;8384;47.996;7.786;2023-03-08T02:21:23;97420.13;;;2.58;61.04
16544;BME280;8384;47.996;7.786;2023-03-08T02:23:49;97430.16;;;2.46;62.11
16544;BME280;8384;47.996;7.786;2023-03-08T02:26:15;97422.97;;;2.51;61.56
16544;BME280;8384;47.996;7.786;2023-03-08T02:28:40;97410.91;;;2.71;61.56
16544;BME280;8384;47.996;7.786;2023-03-08T02:31:06;97392.78;;;2.37;61.61
16544;BME280;8384;47.996;7.786;2023-03-08T02:33:31;97365.13;;;2.30;62.40
16544;BME280;8384;47.996;7.786;2023-03-08T02:36:00;97399.78;;;2.67;61.71
16544;BME280;8384;47.996;7.786;2023-03-08T02:38:26;97371.81;;;2.57;61.42
16544;BME280;8384;47.996;7.786;2023-03-08T02:40:51;97347.75;;;2.38;61.69
16544;BME280;8384;47.996;7.786;2023-03-08T02:43:17;97362.72;;;2.46;62.01
16544;BME280;8384;47.996;7.786;2023-03-08T02:45:43;97371.94;;;2.33;62.78
16544;BME280;8384;47.996;7.786;2023-03-08T02:48:08;97339.38;;;2.22;63.19
16544;BME280;8384;47.996;7.786;2023-03-08T02:50:34;97309.09;;;2.32;62.49
16544;BME280;8384;47.996;7.786;2023-03-08T02:53:01;97346.97;;;2.72;62.09
16544;BME280;8384;47.996;7.786;2023-03-08T02:55:26;97342.84;;;2.52;62.28
16544;BME280;8384;47.996;7.786;2023-03-08T02:57:51;97339.91;;;2.36;63.14
16544;BME280;8384;47.996;7.786;2023-03-08T03:00:17;97281.91;;;2.34;62.81
16544;BME280;8384;47.996;7.786;2023-03-08T03:02:43;97308.81;;;2.63;62.46
16544;BME280;8384;47.996;7.786;2023-03-08T03:05:09;97344.94;;;2.62;62.52
16544;BME280;8384;47.996;7.786;2023-03-08T03:07:39;97324.91;;;2.58;63.16
16544;BME280;8384;47.996;7.786;2023-03-08T03:10:06;97337.66;;;2.79;62.56
16544;BME280;8384;47.996;7.786;2023-03-08T03:12:32;97305.44;;;2.73;63.01
16544;BME280;8384;47.996;7.786;2023-03-08T03:15:00;97313.19;;;2.69;62.71
16544;BME280;8384;47.996;7.786;2023-03-08T03:17:26;97301.97;;;2.94;62.67
16544;BME280;8384;47.996;7.786;2023-03-08T03:19:51;97267.66;;;2.55;63.16
16544;BME280;8384;47.996;7.786;2023-03-08T03:22:16;97297.97;;;2.80;63.38
16544;BME280;8384;47.996;7.786;2023-03-08T03:24:42;97263.41;;;2.77;63.54
16544;BME280;8384;47.996;7.786;2023-03-08T03:27:07;97259.56;;;2.73;63.39
16544;BME280;8384;47.996;7.786;2023-03-08T03:29:32;97253.69;;;2.76;63.70
16544;BME280;8384;47.996;7.786;2023-03-08T03:31:57;97219.69;;;2.58;63.38
16544;BME280;8384;47.996;7.786;2023-03-08T03:34:23;97279.22;;;3.07;63.43
16544;BME280;8384;47.996;7.786;2023-03-08T03:36:48;97254.03;;;3.02;63.40
16544;BME280;8384;47.996;7.786;2023-03-08T03:39:13;97203.25;;;2.98;62.92
16544;BME280;8384;47.996;7.786;2023-03-08T03:41:39;97234.63;;;3.05;62.72
16544;BME280;8384;47.996;7.786;2023-03-08T03:44:04;97261.03;;;3.42;61.97
16544;BME280;8384;47.996;7.786;2023-03-08T03:46:29;97233.28;;;3.24;62.24
16544;BME280;8384;47.996;7.786;2023-03-08T03:48:55;97219.28;;;3.27;61.38
16544;BME280;8384;47.996;7.786;2023-03-08T03:51:21;97245.81;;;3.36;61.02
16544;BME280;8384;47.996;7.786;2023-03-08T03:53:47;97265.09;;;3.67;61.10
16544;BME280;8384;47.996;7.786;2023-03-08T03:56:18;97258.19;;;3.76;60.77
16544;BME280;8384;47.996;7.786;2023-03-08T03:58:44;97258.41;;;3.74;60.18
16544;BME280;8384;47.996;7.786;2023-03-08T04:01:15;97256.03;;;3.78;60.14
16544;BME280;8384;47.996;7.786;2023-03-08T04:03:41;97267.78;;;3.89;59.46
16544;BME280;8384;47.996;7.786;2023-03-08T04:06:09;97244.34;;;3.72;59.62
16544;BME280;8384;47.996;7.786;2023-03-08T04:08:36;97240.00;;;3.71;59.61
16544;BME280;8384;47.996;7.786;2023-03-08T04:11:09;97221.13;;;3.77;59.71
16544;BME280;8384;47.996;7.786;2023-03-08T04:13:35;97216.44;;;3.67;59.60
16544;BME280;8384;47.996;7.786;2023-03-08T04:16:11;97189.13;;;3.63;59.41
16544;BME280;8384;47.996;7.786;2023-03-08T04:18:36;97244.00;;;3.91;59.37
16544;BME280;8384;47.996;7.786;2023-03-08T04:21:02;97223.34;;;3.80;59.02
16544;BME280;8384;47.996;7.786;2023-03-08T04:23:27;97244.75;;;4.14;59.03
16544;BME280;8384;47.996;7.786;2023-03-08T04:25:53;97225.91;;;4.24;57.84
16544;BME280;8384;47.996;7.786;2023-03-08T04:28:18;97215.91;;;3.92;57.76
16544;BME280;8384;47.996;7.786;2023-03-08T04:30:43;97241.63;;;4.27;57.54
16544;BME280;8384;47.996;7.786;2023-03-08T04:33:09;97201.38;;;4.03;57.96
16544;BME280;8384;47.996;7.786;2023-03-08T04:35:34;97221.28;;;4.19;58.10
16544;BME280;8384;47.996;7.786;2023-03-08T04:37:59;97209.34;;;4.15;58.04
16544;BME280;8384;47.996;7.786;2023-03-08T04:40:24;97201.56;;;4.24;57.83
16544;BME280;8384;47.996;7.786;2023-03-08T04:42:50;97230.72;;;4.49;57.01
16544;BME280;8384;47.996;7.786;2023-03-08T04:45:15;97204.63;;;4.38;56.86
16544;BME280;8384;47.996;7.786;2023-03-08T04:47:40;97209.94;;;4.23;56.80
16544;BME280;8384;47.996;7.786;2023-03-08T04:50:06;97212.22;;;4.36;57.16
16544;BME280;8384;47.996;7.786;2023-03-08T04:52:32;97172.59;;;4.19;57.08
16544;BME280;8384;47.996;7.786;2023-03-08T04:54:57;97187.88;;;4.36;56.96
16544;BME280;8384;47.996;7.786;2023-03-08T04:57:23;97185.19;;;4.36;57.05
16544;BME280;8384;47.996;7.786;2023-03-08T04:59:48;97174.03;;;4.32;57.06
16544;BME280;8384;47.996;7.786;2023-03-08T05:02:13;97193.44;;;4.57;56.86
16544;BME280;8384;47.996;7.786;2023-03-08T05:04:39;97180.88;;;4.45;56.82
16544;BME280;8384;47.996;7.786;2023-03-08T05:07:04;97148.91;;;4.32;56.21
16544;BME280;8384;47.996;7.786;2023-03-08T05:09:29;97192.34;;;4.58;57.12
16544;BME280;8384;47.996;7.786;2023-03-08T05:11:54;97189.31;;;4.49;57.08
16544;BME280;8384;47.996;7.786;2023-03-08T05:14:20;97179.97;;;4.72;56.93
16544;BME280;8384;47.996;7.786;2023-03-08T05:16:45;97165.50;;;4.51;57.43
16544;BME280;8384;47.996;7.786;2023-03-08T05:19:11;97177.75;;;4.59;57.51
16544;BME280;8384;47.996;7.786;2023-03-08T05:21:36;97171.25;;;4.65;57.06
16544;BME280;8384;47.996;7.786;2023-03-08T05:24:01;97154.53;;;4.30;57.67
16544;BME280;8384;47.996;7.786;2023-03-08T05:26:27;97139.19;;;4.41;57.28
16544;BME280;8384;47.996;7.786;2023-03-08T05:28:52;97137.75;;;4.28;57.22
16544;BME280;8384;47.996;7.786;2023-03-08T05:31:19;97153.78;;;4.40;57.75
16544;BME280;8384;47.996;7.786;2023-03-08T05:33:48;97161.13;;;4.40;57.68
16544;BME280;8384;47.996;7.786;2023-03-08T05:36:15;97119.84;;;4.17;57.46
16544;BME280;8384;47.996;7.786;2023-03-08T05:38:41;97107.44;;;4.21;57.71
16544;BME280;8384;47.996;7.786;2023-03-08T05:41:10;97136.47;;;4.36;58.29
16544;BME280;8384;47.996;7.786;2023-03-08T05:43:35;97118.91;;;4.39;58.03
16544;BME280;8384;47.996;7.786;2023-03-08T05:46:04;97110.78;;;4.39;57.48
16544;BME280;8384;47.996;7.786;2023-03-08T05:48:31;97108.50;;;4.63;57.32
16544;BME280;8384;47.996;7.786;2023-03-08T05:50:57;97086.38;;;4.23;57.53
16544;BME280;8384;47.996;7.786;2023-03-08T05:53:22;97116.53;;;4.53;57.42
16544;BME280;8384;47.996;7.786;2023-03-08T05:55:48;97122.75;;;4.53;56.95
16544;BME280;8384;47.996;7.786;2023-03-08T05:58:14;97108.28;;;4.27;57.63
16544;BME280;8384;47.996;7.786;2023-03-08T06:00:39;97101.00;;;4.32;57.17
16544;BME280;8384;47.996;7.786;2023-03-08T06:03:05;97068.44;;;4.12;57.25
16544;BME280;8384;47.996;7.786;2023-03-08T06:05:31;97115.97;;;4.45;57.45
16544;BME280;8384;47.996;7.786;2023-03-08T06:07:57;97107.41;;;4.69;56.78
16544;BME280;8384;47.996;7.786;2023-03-08T06:10:23;97089.53;;;4.68;56.41
16544;BME280;8384;47.996;7.786;2023-03-08T06:12:48;97063.78;;;4.50;56.80
16544;BME280;8384;47.996;7.786;2023-03-08T06:15:13;97069.22;;;4.60;56.71
16544;BME280;8384;47.996;7.786;2023-03-08T06:17:40;97052.41;;;4.53;57.54
16544;BME280;8384;47.996;7.786;2023-03-08T06:20:06;97049.72;;;4.58;57.80
16544;BME280;8384;47.996;7.786;2023-03-08T06:22:32;97051.84;;;4.46;58.56
16544;BME280;8384;47.996;7.786;2023-03-08T06:24:57;97057.03;;;4.58;57.35
16544;BME280;8384;47.996;7.786;2023-03-08T06:27:23;97043.00;;;4.61;57.55
16544;BME280;8384;47.996;7.786;2023-03-08T06:29:48;97068.47;;;4.75;58.03
16544;BME280;8384;47.996;7.786;2023-03-08T06:32:15;97055.97;;;4.64;58.76
16544;BME280;8384;47.996;7.786;2023-03-08T06:34:40;97072.63;;;4.40;58.83
16544;BME280;8384;47.996;7.786;2023-03-08T06:37:05;97054.53;;;4.41;59.19
16544;BME280;8384;47.996;7.786;2023-03-08T06:39:31;97024.81;;;4.51;58.31
16544;BME280;8384;47.996;7.786;2023-03-08T06:41:57;97059.06;;;4.93;58.29
16544;BME280;8384;47.996;7.786;2023-03-08T06:44:22;97050.41;;;4.91;58.41
16544;BME280;8384;47.996;7.786;2023-03-08T06:46:47;97033.63;;;5.00;59.06
16544;BME280;8384;47.996;7.786;2023-03-08T06:49:13;97039.00;;;4.89;58.37
16544;BME280;8384;47.996;7.786;2023-03-08T06:51:38;97027.66;;;4.92;58.95
16544;BME280;8384;47.996;7.786;2023-03-08T06:54:03;97009.56;;;5.14;58.65
16544;BME280;8384;47.996;7.786;2023-03-08T06:56:29;97044.75;;;5.08;59.35
16544;BME280;8384;47.996;7.786;2023-03-08T06:58:55;96990.44;;;4.46;60.65
16544;BME280;8384;47.996;7.786;2023-03-08T07:01:20;97024.38;;;4.75;61.11
16544;BME280;8384;47.996;7.786;2023-03-08T07:03:45;97022.97;;;4.62;62.67
16544;BME280;8384;47.996;7.786;2023-03-08T07:06:13;97005.34;;;4.54;63.91
16544;BME280;8384;47.996;7.786;2023-03-08T07:08:38;96998.94;;;4.12;65.49
16544;BME280;8384;47.996;7.786;2023-03-08T07:11:05;97002.63;;;4.49;65.47
16544;BME280;8384;47.996;7.786;2023-03-08T07:13:30;96973.63;;;4.39;66.39
16544;BME280;8384;47.996;7.786;2023-03-08T07:15:56;96981.88;;;4.07;66.72
16544;BME280;8384;47.996;7.786;2023-03-08T07:18:22;96964.34;;;4.19;65.68
16544;BME280;8384;47.996;7.786;2023-03-08T07:20:52;96988.13;;;4.17;67.54
16544;BME280;8384;47.996;7.786;2023-03-08T07:23:17;96963.84;;;4.23;66.73
16544;BME280;8384;47.996;7.786;2023-03-08T07:25:43;96940.16;;;4.56;65.85
16544;BME280;8384;47.996;7.786;2023-03-08T07:28:08;96964.16;;;4.37;66.63
16544;BME280;8384;47.996;7.786;2023-03-08T07:30:33;96941.47;;;4.48;67.03
16544;BME280;8384;47.996;7.786;2023-03-08T07:32:58;96931.22;;;4.65;66.40
16544;BME280;8384;47.996;7.786;2023-03-08T07:35:24;96932.63;;;4.84;66.47
16544;BME280;8384;47.996;7.786;2023-03-08T07:37:49;96941.81;;;4.93;66.11
16544;BME280;8384;47.996;7.786;2023-03-08T07:40:15;96942.91;;;4.97;66.58
16544;BME280;8384;47.996;7.786;2023-03-08T07:42:42;96909.63;;;5.22;66.03
16544;BME280;8384;47.996;7.786;2023-03-08T07:45:07;96927.97;;;5.62;65.73
16544;BME280;8384;47.996;7.786;2023-03-08T07:47:33;96911.25;;;5.29;66.53
16544;BME280;8384;47.996;7.786;2023-03-08T07:49:59;96912.03;;;5.24;67.67
16544;BME280;8384;47.996;7.786;2023-03-08T07:52:28;96894.16;;;5.23;68.84
16544;BME280;8384;47.996;7.786;2023-03-08T07:54:53;96898.16;;;5.56;69.68
16544;BME280;8384;47.996;7.786;2023-03-08T07:57:19;96906.75;;;6.05;68.14
16544;BME280;8384;47.996;7.786;2023-03-08T07:59:44;96876.06;;;6.10;67.33
16544;BME280;8384;47.996;7.786;2023-03-08T08:02:11;96908.47;;;6.46;66.69
16544;BME280;8384;47.996;7.786;2023-03-08T08:04:37;96895.31;;;6.64;66.16
16544;BME280;8384;47.996;7.786;2023-03-08T08:07:03;96913.75;;;7.07;65.15
16544;BME280;8384;47.996;7.786;2023-03-08T08:09:28;96917.41;;;7.26;64.61
16544;BME280;8384;47.996;7.786;2023-03-08T08:11:53;96890.69;;;7.04;63.63
16544;BME280;8384;47.996;7.786;2023-03-08T08:14:18;96904.94;;;7.20;64.08
16544;BME280;8384;47.996;7.786;2023-03-08T08:16:44;96910.50;;;7.39;64.08
16544;BME280;8384;47.996;7.786;2023-03-08T08:19:10;96899.16;;;7.61;64.05
16544;BME280;8384;47.996;7.786;2023-03-08T08:21:36;96881.91;;;7.42;63.27
16544;BME280;8384;47.996;7.786;2023-03-08T08:24:02;96863.81;;;7.32;62.88
16544;BME280;8384;47.996;7.786;2023-03-08T08:26:27;96877.31;;;7.42;64.45
16544;BME280;8384;47.996;7.786;2023-03-08T08:28:53;96843.19;;;7.55;62.60
16544;BME280;8384;47.996;7.786;2023-03-08T08:31:21;96882.56;;;7.87;63.08
16544;BME280;8384;47.996;7.786;2023-03-08T08:33:47;96882.81;;;7.86;62.77
16544;BME280;8384;47.996;7.786;2023-03-08T08:36:14;96888.47;;;7.94;62.41
16544;BME280;8384;47.996;7.786;2023-03-08T08:38:40;96895.69;;;8.04;61.83
16544;BME280;8384;47.996;7.786;2023-03-08T08:41:08;96872.13;;;7.94;61.29
16544;BME280;8384;47.996;7.786;2023-03-08T08:43:34;96894.59;;;7.81;62.70
16544;BME280;8384;47.996;7.786;2023-03-08T08:46:01;96907.59;;;7.84;62.76
16544;BME280;8384;47.996;7.786;2023-03-08T08:48:27;96897.34;;;7.76;62.76
16544;BME280;8384;47.996;7.786;2023-03-08T08:50:52;96881.38;;;7.69;62.96
16544;BME280;8384;47.996;7.786;2023-03-08T08:53:18;96875.25;;;7.58;63.07
16544;BME280;8384;47.996;7.786;2023-03-08T08:55:44;96921.31;;;7.74;63.07
16544;BME280;8384;47.996;7.786;2023-03-08T08:58:09;96881.47;;;7.59;64.48
16544;BME280;8384;47.996;7.786;2023-03-08T09:00:35;96913.31;;;7.83;63.47
16544;BME280;8384;47.996;7.786;2023-03-08T09:03:01;96915.56;;;7.80;64.18
16544;BME280;8384;47.996;7.786;2023-03-08T09:05:27;96885.38;;;8.01;62.66
16544;BME280;8384;47.996;7.786;2023-03-08T09:07:54;96862.00;;;8.00;62.51
16544;BME280;8384;47.996;7.786;2023-03-08T09:10:20;96919.25;;;7.90;63.79
16544;BME280;8384;47.996;7.786;2023-03-08T09:12:45;96929.13;;;8.05;63.98
16544;BME280;8384;47.996;7.786;2023-03-08T09:15:10;96884.00;;;7.79;64.48
16544;BME280;8384;47.996;7.786;2023-03-08T09:17:37;96902.53;;;7.77;65.20
16544;BME280;8384;47.996;7.786;2023-03-08T09:20:03;96925.94;;;7.98;64.87
16544;BME280;8384;47.996;7.786;2023-03-08T09:22:30;96903.72;;;8.15;64.00
16544;BME280;8384;47.996;7.786;2023-03-08T09:24:56;96883.06;;;7.89;64.95
16544;BME280;8384;47.996;7.786;2023-03-08T09:27:21;96913.53;;;7.91;64.43
16544;BME280;8384;47.996;7.786;2023-03-08T09:29:46;96930.13;;;7.65;65.65
16544;BME280;8384;47.996;7.786;2023-03-08T09:32:12;96922.66;;;7.76;66.27
16544;BME280;8384;47.996;7.786;2023-03-08T09:34:37;96918.88;;;7.96;65.93
16544;BME280;8384;47.996;7.786;2023-03-08T09:37:03;96897.13;;;7.72;66.66
16544;BME280;8384;47.996;7.786;2023-03-08T09:39:29;96904.53;;;7.91;66.82
16544;BME280;8384;47.996;7.786;2023-03-08T09:41:56;96920.03;;;8.15;67.05
16544;BME280;8384;47.996;7.786;2023-03-08T09:44:38;96938.97;;;8.25;67.98
16544;BME280;8384;47.996;7.786;2023-03-08T09:47:28;96954.28;;;8.21;68.00
16544;BME280;8384;47.996;7.786;2023-03-08T09:50:30;96921.19;;;8.08;68.15
16544;BME280;8384;47.996;7.786;2023-03-08T09:53:02;96934.22;;;8.11;69.65
16544;BME280;8384;47.996;7.786;2023-03-08T09:55:34;96944.53;;;8.15;70.28
16544;BME280;8384;47.996;7.786;2023-03-08T09:58:48;96941.06;;;8.33;71.54
16544;BME280;8384;47.996;7.786;2023-03-08T10:06:47;96933.63;;;8.82;71.45
16544;BME280;8384;47.996;7.786;2023-03-08T10:09:20;96938.75;;;9.22;70.70
16544;BME280;8384;47.996;7.786;2023-03-08T10:12:00;96890.47;;;9.09;72.49
16544;BME280;8384;47.996;7.786;2023-03-08T10:14:34;96973.16;;;9.18;74.24
16544;BME280;8384;47.996;7.786;2023-03-08T10:17:07;96948.88;;;9.03;75.29
16544;BME280;8384;47.996;7.786;2023-03-08T10:19:40;96944.31;;;9.50;74.74
16544;BME280;8384;47.996;7.786;2023-03-08T10:22:14;96915.75;;;9.28;75.97
16544;BME280;8384;47.996;7.786;2023-03-08T10:24:59;96960.06;;;9.53;76.04
16544;BME280;8384;47.996;7.786;2023-03-08T10:27:27;96947.84;;;9.51;77.25
16544;BME280;8384;47.996;7.786;2023-03-08T10:29:57;96925.41;;;9.40;78.34
16544;BME280;8384;47.996;7.786;2023-03-08T10:32:24;96932.00;;;9.53;77.73
16544;BME280;8384;47.996;7.786;2023-03-08T10:34:49;96927.19;;;9.64;78.36
16544;BME280;8384;47.996;7.786;2023-03-08T10:37:15;96933.81;;;9.24;79.29
16544;BME280;8384;47.996;7.786;2023-03-08T10:39:51;96930.41;;;9.66;79.21
16544;BME280;8384;47.996;7.786;2023-03-08T10:42:21;96939.59;;;9.70;79.64
16544;BME280;8384;47.996;7.786;2023-03-08T10:44:56;96941.31;;;9.66;79.26
16544;BME280;8384;47.996;7.786;2023-03-08T10:47:27;96926.94;;;9.60;80.44
16544;BME280;8384;47.996;7.786;2023-03-08T10:50:11;96943.16;;;9.70;79.71
16544;BME280;8384;47.996;7.786;2023-03-08T10:52:38;96885.09;;;9.04;81.87
16544;BME280;8384;47.996;7.786;2023-03-08T10:55:14;96930.22;;;9.43;81.63
16544;BME280;8384;47.996;7.786;2023-03-08T10:57:42;96926.97;;;9.27;82.84
16544;BME280;8384;47.996;7.786;2023-03-08T11:02:41;96911.63;;;9.31;83.17
16544;BME280;8384;47.996;7.786;2023-03-08T11:05:24;96908.09;;;9.30;83.06
16544;BME280;8384;47.996;7.786;2023-03-08T11:07:58;96957.34;;;9.53;83.32
16544;BME280;8384;47.996;7.786;2023-03-08T11:10:26;96934.06;;;9.09;85.65
16544;BME280;8384;47.996;7.786;2023-03-08T11:13:24;96950.69;;;9.07;86.86
16544;BME280;8384;47.996;7.786;2023-03-08T11:15:57;96950.38;;;9.28;86.45
16544;BME280;8384;47.996;7.786;2023-03-08T11:18:49;96960.34;;;9.38;85.39
16544;BME280;8384;47.996;7.786;2023-03-08T11:21:38;96937.84;;;9.60;85.25
16544;BME280;8384;47.996;7.786;2023-03-08T11:24:29;96948.38;;;9.53;85.49
16544;BME280;8384;47.996;7.786;2023-03-08T11:27:03;96938.38;;;9.62;85.09
16544;BME280;8384;47.996;7.786;2023-03-08T11:29:48;96935.25;;;9.69;84.71
16544;BME280;8384;47.996;7.786;2023-03-08T11:35:42;96946.69;;;9.85;85.01
16544;BME280;8384;47.996;7.786;2023-03-08T11:37:55;96919.91;;;9.87;83.26
16544;BME280;8384;47.996;7.786;2023-03-08T11:40:27;96913.34;;;9.88;83.70
16544;BME280;8384;47.996;7.786;2023-03-08T11:43:23;96891.44;;;9.93;82.30
16544;BME280;8384;47.996;7.786;2023-03-08T11:51:18;96938.28;;;10.42;81.49
16544;BME280;8384;47.996;7.786;2023-03-08T11:56:44;96952.59;;;10.62;81.14
16544;BME280;8384;47.996;7.786;2023-03-08T12:02:22;96927.84;;;10.95;78.67
16544;BME280;8384;47.996;7.786;2023-03-08T12:05:11;96940.41;;;11.19;77.41
16544;BME280;8384;47.996;7.786;2023-03-08T12:07:42;96930.78;;;11.21;76.91
16544;BME280;8384;47.996;7.786;2023-03-08T12:12:43;96944.28;;;11.40;76.00
16544;BME280;8384;47.996;7.786;2023-03-08T12:15:25;96940.78;;;11.49;75.66
16544;BME280;8384;47.996;7.786;2023-03-08T12:17:56;96953.84;;;11.52;74.24
16544;BME280;8384;47.996;7.786;2023-03-08T12:20:26;96907.34;;;11.52;74.26
16544;BME280;8384;47.996;7.786;2023-03-08T12:23:00;96911.50;;;12.04;72.67
16544;BME280;8384;47.996;7.786;2023-03-08T12:25:34;96908.56;;;11.68;73.60
16544;BME280;8384;47.996;7.786;2023-03-08T12:31:20;96940.47;;;11.82;74.21
16544;BME280;8384;47.996;7.786;2023-03-08T12:33:50;96891.31;;;11.68;73.54
16544;BME280;8384;47.996;7.786;2023-03-08T12:36:16;96891.06;;;11.87;73.47
16544;BME280;8384;47.996;7.786;2023-03-08T12:38:44;96891.00;;;11.69;74.13
16544;BME280;8384;47.996;7.786;2023-03-08T12:41:39;96919.41;;;11.82;74.60
16544;BME280;8384;47.996;7.786;2023-03-08T12:44:21;96911.81;;;11.79;74.03
16544;BME280;8384;47.996;7.786;2023-03-08T12:46:49;96882.78;;;11.69;74.42
16544;BME280;8384;47.996;7.786;2023-03-08T12:49:25;96915.81;;;11.73;74.85
16544;BME280;8384;47.996;7.786;2023-03-08T12:52:02;96921.78;;;11.75;74.73
16544;BME280;8384;47.996;7.786;2023-03-08T12:54:30;96942.50;;;11.67;75.47
16544;BME280;8384;47.996;7.786;2023-03-08T12:56:58;96902.34;;;11.85;74.63
16544;BME280;8384;47.996;7.786;2023-03-08T12:59:27;96913.56;;;11.75;74.93
16544;BME280;8384;47.996;7.786;2023-03-08T13:14:44;96876.09;;;11.84;74.75
16544;BME280;8384;47.996;7.786;2023-03-08T13:19:56;96882.81;;;12.10;72.51
16544;BME280;8384;47.996;7.786;2023-03-08T13:25:42;96922.03;;;12.28;71.73
16544;BME280;8384;47.996;7.786;2023-03-08T13:28:14;96882.88;;;12.27;71.69
16544;BME280;8384;47.996;7.786;2023-03-08T13:30:52;96853.41;;;12.33;70.33
16544;BME280;8384;47.996;7.786;2023-03-08T13:33:21;96851.31;;;12.39;70.16
16544;BME280;8384;47.996;7.786;2023-03-08T13:36:01;96898.72;;;12.39;70.27
16544;BME280;8384;47.996;7.786;2023-03-08T13:38:37;96842.44;;;12.33;69.86
16544;BME280;8384;47.996;7.786;2023-03-08T13:41:02;96858.16;;;12.10;69.85
16544;BME280;8384;47.996;7.786;2023-03-08T13:43:30;96840.84;;;12.41;69.83
16544;BME280;8384;47.996;7.786;2023-03-08T13:46:01;96861.28;;;12.35;70.04
16544;BME280;8384;47.996;7.786;2023-03-08T13:48:29;96874.03;;;12.39;70.06
16544;BME280;8384;47.996;7.786;2023-03-08T13:50:56;96851.94;;;12.36;69.53
16544;BME280;8384;47.996;7.786;2023-03-08T13:53:28;96850.69;;;12.59;68.79
16544;BME280;8384;47.996;7.786;2023-03-08T13:55:57;96840.03;;;12.40;69.83
16544;BME280;8384;47.996;7.786;2023-03-08T14:01:21;96838.75;;;12.47;69.38
16544;BME280;8384;47.996;7.786;2023-03-08T14:03:47;96827.78;;;12.47;69.04
16544;BME280;8384;47.996;7.786;2023-03-08T14:06:24;96849.41;;;12.48;68.45
16544;BME280;8384;47.996;7.786;2023-03-08T14:08:52;96826.00;;;12.42;69.37
16544;BME280;8384;47.996;7.786;2023-03-08T14:11:23;96798.44;;;12.65;69.05
16544;BME280;8384;47.996;7.786;2023-03-08T14:13:52;96822.31;;;12.64;69.29
16544;BME280;8384;47.996;7.786;2023-03-08T14:16:36;96833.09;;;12.52;68.91